Terminal Aerodrome Forecast
Issued by NWS

Home | Current Version | Previous Version | Text Only | Print | Product List | Glossary Off
Versions: 1 2 3 4 5 6 7 8 9 10 11 12 13 14 15 16 17 18 19 20 21 22 23 24 25 26 27 28

558
FTUS43 KABR 201531 AAC
TAFATY
TAF AMD
KATY 201531Z 2016/2112 20012KT 1/4SM FG OVC002
      TEMPO 2016/2017 1SM BR BKN015
     FM201700 25015G20KT 1SM BR SCT002 OVC010
     FM201800 27016G24KT P6SM OVC015
     FM201930 28016G24KT P6SM BKN035
     FM202100 29017G25KT P6SM SCT100
     FM210500 20007KT P6SM FEW150=

USA.gov is the U.S. government's official web portal to all federal, state and local government web resources and services.